Rondeau, Canada
Current Conditions -  °F | °C
As of 2:00 AM on Saturday 20 Dec 2014 (Local Time) from CYCK Reporting Station
Overcast Overcast  
Wind Chill: 20°   Ceiling: 2800
Heat Index: 27°   Visibility: 9mi
Dew Point: 23°   Wind: 6mph
Humidity: 86%   Direction: 230°SW
Pressure: 30.28"   Gusts: NA
Location:  42.28°N, 81.87°W
Report Text: CYCK 200700Z AUTO 23005KT 9SM OVC028 M03/M05 A3028 RMK SLP262
Loading
Personal Weather Stations






























Interactive Weather Map New forecast layout! Learn more

10-Day Weather Forecast

Advertisements
Track Severe Weather on mobile